sensor_id;sensor_type;location;lat;lon;timestamp;P1;durP1;ratioP1;P2;durP2;ratioP2
71665;SDS011;59503;53.486;10.196;2023-07-31T00:01:17;7.57;;;2.57;;
71665;SDS011;59503;53.486;10.196;2023-07-31T00:03:42;3.77;;;2.30;;
71665;SDS011;59503;53.486;10.196;2023-07-31T00:06:07;7.10;;;2.47;;
71665;SDS011;59503;53.486;10.196;2023-07-31T00:08:33;4.20;;;2.20;;
71665;SDS011;59503;53.486;10.196;2023-07-31T00:10:58;7.45;;;2.30;;
71665;SDS011;59503;53.486;10.196;2023-07-31T00:13:24;9.07;;;2.50;;
71665;SDS011;59503;53.486;10.196;2023-07-31T00:15:49;11.47;;;2.73;;
71665;SDS011;59503;53.486;10.196;2023-07-31T00:18:15;5.83;;;2.57;;
71665;SDS011;59503;53.486;10.196;2023-07-31T00:20:40;5.22;;;2.50;;
71665;SDS011;59503;53.486;10.196;2023-07-31T00:23:06;6.05;;;2.72;;
71665;SDS011;59503;53.486;10.196;2023-07-31T00:25:32;9.90;;;2.87;;
71665;SDS011;59503;53.486;10.196;2023-07-31T00:27:57;6.33;;;2.77;;
71665;SDS011;59503;53.486;10.196;2023-07-31T00:30:22;10.13;;;3.20;;
71665;SDS011;59503;53.486;10.196;2023-07-31T00:32:50;7.45;;;2.42;;
71665;SDS011;59503;53.486;10.196;2023-07-31T00:35:15;11.93;;;3.05;;
71665;SDS011;59503;53.486;10.196;2023-07-31T00:37:41;6.40;;;2.03;;
71665;SDS011;59503;53.486;10.196;2023-07-31T00:40:06;6.00;;;2.70;;
71665;SDS011;59503;53.486;10.196;2023-07-31T00:42:32;9.45;;;2.65;;
71665;SDS011;59503;53.486;10.196;2023-07-31T00:44:58;5.73;;;2.60;;
71665;SDS011;59503;53.486;10.196;2023-07-31T00:47:23;11.23;;;2.60;;
71665;SDS011;59503;53.486;10.196;2023-07-31T00:49:49;12.05;;;2.75;;
71665;SDS011;59503;53.486;10.196;2023-07-31T00:52:14;9.60;;;2.80;;
71665;SDS011;59503;53.486;10.196;2023-07-31T00:54:40;7.43;;;2.28;;
71665;SDS011;59503;53.486;10.196;2023-07-31T00:57:05;8.07;;;2.30;;
71665;SDS011;59503;53.486;10.196;2023-07-31T00:59:33;6.88;;;2.50;;
71665;SDS011;59503;53.486;10.196;2023-07-31T01:01:59;11.40;;;2.53;;
71665;SDS011;59503;53.486;10.196;2023-07-31T01:04:25;7.95;;;2.40;;
71665;SDS011;59503;53.486;10.196;2023-07-31T01:09:49;5.65;;;2.33;;
71665;SDS011;59503;53.486;10.196;2023-07-31T01:12:22;8.50;;;2.03;;
71665;SDS011;59503;53.486;10.196;2023-07-31T01:15:07;5.60;;;2.17;;
71665;SDS011;59503;53.486;10.196;2023-07-31T01:17:37;5.10;;;2.45;;
71665;SDS011;59503;53.486;10.196;2023-07-31T01:20:04;4.95;;;1.98;;
71665;SDS011;59503;53.486;10.196;2023-07-31T01:25:47;4.25;;;2.15;;
71665;SDS011;59503;53.486;10.196;2023-07-31T01:28:13;7.97;;;2.40;;
71665;SDS011;59503;53.486;10.196;2023-07-31T01:30:44;7.53;;;2.60;;
71665;SDS011;59503;53.486;10.196;2023-07-31T01:33:14;6.30;;;2.17;;
71665;SDS011;59503;53.486;10.196;2023-07-31T01:35:46;5.32;;;2.28;;
71665;SDS011;59503;53.486;10.196;2023-07-31T01:38:14;7.57;;;2.65;;
71665;SDS011;59503;53.486;10.196;2023-07-31T01:40:42;4.80;;;2.20;;
71665;SDS011;59503;53.486;10.196;2023-07-31T01:43:08;6.88;;;2.25;;
71665;SDS011;59503;53.486;10.196;2023-07-31T01:45:33;6.83;;;2.63;;
71665;SDS011;59503;53.486;10.196;2023-07-31T01:47:59;7.50;;;2.90;;
71665;SDS011;59503;53.486;10.196;2023-07-31T01:50:24;9.25;;;2.65;;
71665;SDS011;59503;53.486;10.196;2023-07-31T01:52:50;11.07;;;2.57;;
71665;SDS011;59503;53.486;10.196;2023-07-31T01:55:15;7.97;;;3.17;;
71665;SDS011;59503;53.486;10.196;2023-07-31T01:57:40;8.33;;;2.70;;
71665;SDS011;59503;53.486;10.196;2023-07-31T02:00:06;4.57;;;2.27;;
71665;SDS011;59503;53.486;10.196;2023-07-31T02:02:32;9.80;;;2.90;;
71665;SDS011;59503;53.486;10.196;2023-07-31T02:04:58;4.47;;;2.42;;
71665;SDS011;59503;53.486;10.196;2023-07-31T02:07:23;6.67;;;2.50;;
71665;SDS011;59503;53.486;10.196;2023-07-31T02:09:49;7.93;;;2.67;;
71665;SDS011;59503;53.486;10.196;2023-07-31T02:12:14;7.97;;;2.20;;
71665;SDS011;59503;53.486;10.196;2023-07-31T02:14:40;6.83;;;2.43;;
71665;SDS011;59503;53.486;10.196;2023-07-31T02:17:06;6.50;;;2.85;;
71665;SDS011;59503;53.486;10.196;2023-07-31T02:19:31;8.83;;;3.10;;
71665;SDS011;59503;53.486;10.196;2023-07-31T02:21:57;9.30;;;2.70;;
71665;SDS011;59503;53.486;10.196;2023-07-31T02:24:23;3.83;;;2.00;;
71665;SDS011;59503;53.486;10.196;2023-07-31T02:26:49;10.65;;;3.08;;
71665;SDS011;59503;53.486;10.196;2023-07-31T02:29:14;6.07;;;2.77;;
71665;SDS011;59503;53.486;10.196;2023-07-31T02:31:40;5.33;;;2.77;;
71665;SDS011;59503;53.486;10.196;2023-07-31T02:34:05;5.78;;;2.88;;
71665;SDS011;59503;53.486;10.196;2023-07-31T02:36:30;6.90;;;2.93;;
71665;SDS011;59503;53.486;10.196;2023-07-31T02:38:56;14.63;;;3.70;;
71665;SDS011;59503;53.486;10.196;2023-07-31T02:41:21;8.07;;;3.53;;
71665;SDS011;59503;53.486;10.196;2023-07-31T02:43:47;12.02;;;3.45;;
71665;SDS011;59503;53.486;10.196;2023-07-31T02:46:12;5.27;;;2.67;;
71665;SDS011;59503;53.486;10.196;2023-07-31T02:48:37;9.27;;;2.93;;
71665;SDS011;59503;53.486;10.196;2023-07-31T02:51:03;8.20;;;3.67;;
71665;SDS011;59503;53.486;10.196;2023-07-31T02:53:28;12.57;;;3.40;;
71665;SDS011;59503;53.486;10.196;2023-07-31T02:55:54;7.47;;;2.70;;
71665;SDS011;59503;53.486;10.196;2023-07-31T02:58:19;9.73;;;3.10;;
71665;SDS011;59503;53.486;10.196;2023-07-31T03:00:45;12.07;;;2.90;;
71665;SDS011;59503;53.486;10.196;2023-07-31T03:03:11;10.30;;;3.53;;
71665;SDS011;59503;53.486;10.196;2023-07-31T03:05:36;11.20;;;3.78;;
71665;SDS011;59503;53.486;10.196;2023-07-31T03:08:02;8.13;;;2.93;;
71665;SDS011;59503;53.486;10.196;2023-07-31T03:10:28;9.70;;;3.70;;
71665;SDS011;59503;53.486;10.196;2023-07-31T03:12:54;19.00;;;3.50;;
71665;SDS011;59503;53.486;10.196;2023-07-31T03:15:19;9.90;;;3.30;;
71665;SDS011;59503;53.486;10.196;2023-07-31T03:17:46;7.37;;;3.47;;
71665;SDS011;59503;53.486;10.196;2023-07-31T03:20:11;16.33;;;3.70;;
71665;SDS011;59503;53.486;10.196;2023-07-31T03:22:36;9.50;;;3.40;;
71665;SDS011;59503;53.486;10.196;2023-07-31T03:25:03;12.30;;;3.38;;
71665;SDS011;59503;53.486;10.196;2023-07-31T03:27:29;8.90;;;3.47;;
71665;SDS011;59503;53.486;10.196;2023-07-31T03:29:54;11.20;;;3.08;;
71665;SDS011;59503;53.486;10.196;2023-07-31T03:32:20;15.17;;;3.37;;
71665;SDS011;59503;53.486;10.196;2023-07-31T03:34:45;6.17;;;3.03;;
71665;SDS011;59503;53.486;10.196;2023-07-31T03:37:11;7.95;;;3.58;;
71665;SDS011;59503;53.486;10.196;2023-07-31T03:39:36;9.63;;;3.40;;
71665;SDS011;59503;53.486;10.196;2023-07-31T03:42:02;11.13;;;4.23;;
71665;SDS011;59503;53.486;10.196;2023-07-31T03:44:27;10.73;;;3.00;;
71665;SDS011;59503;53.486;10.196;2023-07-31T03:46:53;8.50;;;3.57;;
71665;SDS011;59503;53.486;10.196;2023-07-31T03:49:18;7.03;;;3.40;;
71665;SDS011;59503;53.486;10.196;2023-07-31T03:51:44;9.13;;;3.78;;
71665;SDS011;59503;53.486;10.196;2023-07-31T03:54:09;9.77;;;3.53;;
71665;SDS011;59503;53.486;10.196;2023-07-31T03:56:35;12.05;;;3.92;;
71665;SDS011;59503;53.486;10.196;2023-07-31T03:59:00;10.27;;;4.17;;
71665;SDS011;59503;53.486;10.196;2023-07-31T04:01:26;9.87;;;4.23;;
71665;SDS011;59503;53.486;10.196;2023-07-31T04:03:52;10.60;;;4.10;;
71665;SDS011;59503;53.486;10.196;2023-07-31T04:06:17;10.30;;;4.70;;
71665;SDS011;59503;53.486;10.196;2023-07-31T04:08:45;11.90;;;5.30;;
71665;SDS011;59503;53.486;10.196;2023-07-31T04:11:11;11.57;;;5.27;;
71665;SDS011;59503;53.486;10.196;2023-07-31T04:13:37;10.18;;;5.22;;
71665;SDS011;59503;53.486;10.196;2023-07-31T04:16:03;9.77;;;5.33;;
71665;SDS011;59503;53.486;10.196;2023-07-31T04:18:28;12.18;;;5.90;;
71665;SDS011;59503;53.486;10.196;2023-07-31T04:20:56;11.35;;;5.28;;
71665;SDS011;59503;53.486;10.196;2023-07-31T04:23:23;12.40;;;5.43;;
71665;SDS011;59503;53.486;10.196;2023-07-31T04:25:49;8.82;;;4.85;;
71665;SDS011;59503;53.486;10.196;2023-07-31T04:28:15;9.75;;;5.80;;
71665;SDS011;59503;53.486;10.196;2023-07-31T04:30:40;10.00;;;5.50;;
71665;SDS011;59503;53.486;10.196;2023-07-31T04:33:05;11.57;;;5.50;;
71665;SDS011;59503;53.486;10.196;2023-07-31T04:35:31;12.00;;;5.77;;
71665;SDS011;59503;53.486;10.196;2023-07-31T04:37:56;8.43;;;5.40;;
71665;SDS011;59503;53.486;10.196;2023-07-31T04:40:22;11.00;;;4.97;;
71665;SDS011;59503;53.486;10.196;2023-07-31T04:42:47;8.17;;;5.30;;
71665;SDS011;59503;53.486;10.196;2023-07-31T04:45:14;13.17;;;5.33;;
71665;SDS011;59503;53.486;10.196;2023-07-31T04:47:40;8.03;;;5.30;;
71665;SDS011;59503;53.486;10.196;2023-07-31T04:50:05;12.38;;;5.90;;
71665;SDS011;59503;53.486;10.196;2023-07-31T04:52:31;8.73;;;5.13;;
71665;SDS011;59503;53.486;10.196;2023-07-31T04:54:56;14.35;;;5.38;;
71665;SDS011;59503;53.486;10.196;2023-07-31T04:57:22;10.50;;;5.57;;
71665;SDS011;59503;53.486;10.196;2023-07-31T04:59:47;9.10;;;5.40;;
71665;SDS011;59503;53.486;10.196;2023-07-31T05:02:13;8.53;;;5.20;;
71665;SDS011;59503;53.486;10.196;2023-07-31T05:04:38;10.27;;;5.30;;
71665;SDS011;59503;53.486;10.196;2023-07-31T05:07:04;8.23;;;5.17;;
71665;SDS011;59503;53.486;10.196;2023-07-31T05:09:30;9.15;;;4.97;;
71665;SDS011;59503;53.486;10.196;2023-07-31T05:11:55;8.53;;;5.30;;
71665;SDS011;59503;53.486;10.196;2023-07-31T05:14:20;10.73;;;4.93;;
71665;SDS011;59503;53.486;10.196;2023-07-31T05:16:46;10.80;;;5.50;;
71665;SDS011;59503;53.486;10.196;2023-07-31T05:19:11;10.27;;;5.37;;
71665;SDS011;59503;53.486;10.196;2023-07-31T05:21:37;9.90;;;5.70;;
71665;SDS011;59503;53.486;10.196;2023-07-31T05:24:02;9.67;;;4.80;;
71665;SDS011;59503;53.486;10.196;2023-07-31T05:26:28;8.40;;;5.35;;
71665;SDS011;59503;53.486;10.196;2023-07-31T05:28:53;7.30;;;4.53;;
71665;SDS011;59503;53.486;10.196;2023-07-31T05:31:18;9.37;;;5.20;;
71665;SDS011;59503;53.486;10.196;2023-07-31T05:33:44;10.20;;;5.20;;
71665;SDS011;59503;53.486;10.196;2023-07-31T05:36:09;7.43;;;4.60;;
71665;SDS011;59503;53.486;10.196;2023-07-31T05:38:35;8.07;;;4.53;;
71665;SDS011;59503;53.486;10.196;2023-07-31T05:41:01;8.17;;;5.17;;
71665;SDS011;59503;53.486;10.196;2023-07-31T05:43:26;8.68;;;4.97;;
71665;SDS011;59503;53.486;10.196;2023-07-31T05:45:51;7.17;;;4.47;;
71665;SDS011;59503;53.486;10.196;2023-07-31T05:48:17;7.43;;;4.40;;
71665;SDS011;59503;53.486;10.196;2023-07-31T05:50:43;7.80;;;4.70;;
71665;SDS011;59503;53.486;10.196;2023-07-31T05:53:09;9.20;;;4.35;;
71665;SDS011;59503;53.486;10.196;2023-07-31T05:55:35;7.13;;;4.65;;
71665;SDS011;59503;53.486;10.196;2023-07-31T05:58:01;7.07;;;4.10;;
71665;SDS011;59503;53.486;10.196;2023-07-31T06:00:26;7.10;;;4.50;;
71665;SDS011;59503;53.486;10.196;2023-07-31T06:02:52;8.65;;;4.35;;
71665;SDS011;59503;53.486;10.196;2023-07-31T06:05:18;9.83;;;5.23;;
71665;SDS011;59503;53.486;10.196;2023-07-31T06:07:44;10.07;;;5.25;;
71665;SDS011;59503;53.486;10.196;2023-07-31T06:10:09;9.57;;;4.90;;
71665;SDS011;59503;53.486;10.196;2023-07-31T06:12:35;7.67;;;4.97;;
71665;SDS011;59503;53.486;10.196;2023-07-31T06:15:04;10.70;;;5.10;;
71665;SDS011;59503;53.486;10.196;2023-07-31T06:17:30;9.07;;;4.63;;
71665;SDS011;59503;53.486;10.196;2023-07-31T06:19:56;9.43;;;5.37;;
71665;SDS011;59503;53.486;10.196;2023-07-31T06:22:22;8.55;;;4.63;;
71665;SDS011;59503;53.486;10.196;2023-07-31T06:24:47;6.03;;;4.40;;
71665;SDS011;59503;53.486;10.196;2023-07-31T06:27:13;7.28;;;4.80;;
71665;SDS011;59503;53.486;10.196;2023-07-31T06:29:38;6.60;;;4.43;;
71665;SDS011;59503;53.486;10.196;2023-07-31T06:32:04;10.90;;;4.30;;
71665;SDS011;59503;53.486;10.196;2023-07-31T06:34:29;9.43;;;4.83;;
71665;SDS011;59503;53.486;10.196;2023-07-31T06:36:55;5.80;;;3.95;;
71665;SDS011;59503;53.486;10.196;2023-07-31T06:39:21;5.67;;;3.93;;
71665;SDS011;59503;53.486;10.196;2023-07-31T06:41:47;5.68;;;3.58;;
71665;SDS011;59503;53.486;10.196;2023-07-31T06:44:12;4.40;;;3.30;;
71665;SDS011;59503;53.486;10.196;2023-07-31T06:46:38;5.53;;;3.78;;
71665;SDS011;59503;53.486;10.196;2023-07-31T06:49:03;4.40;;;3.20;;
71665;SDS011;59503;53.486;10.196;2023-07-31T06:51:29;5.30;;;3.53;;
71665;SDS011;59503;53.486;10.196;2023-07-31T06:53:56;5.60;;;3.50;;
71665;SDS011;59503;53.486;10.196;2023-07-31T06:56:22;4.10;;;2.97;;
71665;SDS011;59503;53.486;10.196;2023-07-31T06:58:47;5.43;;;2.90;;
71665;SDS011;59503;53.486;10.196;2023-07-31T07:01:13;4.60;;;3.17;;
71665;SDS011;59503;53.486;10.196;2023-07-31T07:03:38;4.78;;;3.08;;
71665;SDS011;59503;53.486;10.196;2023-07-31T07:06:04;5.67;;;3.27;;
71665;SDS011;59503;53.486;10.196;2023-07-31T07:08:29;5.33;;;2.87;;
71665;SDS011;59503;53.486;10.196;2023-07-31T07:10:55;4.57;;;2.97;;
71665;SDS011;59503;53.486;10.196;2023-07-31T07:13:21;5.10;;;2.83;;
71665;SDS011;59503;53.486;10.196;2023-07-31T07:15:49;4.40;;;2.42;;
71665;SDS011;59503;53.486;10.196;2023-07-31T07:18:15;4.35;;;2.40;;
71665;SDS011;59503;53.486;10.196;2023-07-31T07:20:46;3.60;;;2.40;;
71665;SDS011;59503;53.486;10.196;2023-07-31T07:23:12;3.55;;;2.42;;
71665;SDS011;59503;53.486;10.196;2023-07-31T07:25:38;5.40;;;2.20;;
71665;SDS011;59503;53.486;10.196;2023-07-31T07:28:03;3.30;;;2.45;;
71665;SDS011;59503;53.486;10.196;2023-07-31T07:30:28;3.43;;;2.23;;
71665;SDS011;59503;53.486;10.196;2023-07-31T07:32:54;4.30;;;2.07;;
71665;SDS011;59503;53.486;10.196;2023-07-31T07:35:19;4.50;;;2.15;;
71665;SDS011;59503;53.486;10.196;2023-07-31T07:37:45;3.33;;;2.00;;
71665;SDS011;59503;53.486;10.196;2023-07-31T07:40:14;2.28;;;1.80;;
71665;SDS011;59503;53.486;10.196;2023-07-31T07:42:39;3.20;;;2.07;;
71665;SDS011;59503;53.486;10.196;2023-07-31T07:45:05;2.60;;;1.90;;
71665;SDS011;59503;53.486;10.196;2023-07-31T07:47:30;4.25;;;2.35;;
71665;SDS011;59503;53.486;10.196;2023-07-31T07:49:56;3.13;;;1.97;;
71665;SDS011;59503;53.486;10.196;2023-07-31T07:52:21;3.63;;;1.50;;
71665;SDS011;59503;53.486;10.196;2023-07-31T07:54:47;2.20;;;1.60;;
71665;SDS011;59503;53.486;10.196;2023-07-31T07:57:12;3.40;;;1.37;;
71665;SDS011;59503;53.486;10.196;2023-07-31T07:59:38;2.00;;;1.53;;
71665;SDS011;59503;53.486;10.196;2023-07-31T08:02:03;2.60;;;1.50;;
71665;SDS011;59503;53.486;10.196;2023-07-31T08:04:29;4.47;;;1.50;;
71665;SDS011;59503;53.486;10.196;2023-07-31T08:06:54;2.10;;;1.50;;
71665;SDS011;59503;53.486;10.196;2023-07-31T08:09:19;3.60;;;1.70;;
71665;SDS011;59503;53.486;10.196;2023-07-31T08:11:45;2.90;;;1.40;;
71665;SDS011;59503;53.486;10.196;2023-07-31T08:14:10;2.63;;;1.53;;
71665;SDS011;59503;53.486;10.196;2023-07-31T08:16:36;2.00;;;1.43;;
71665;SDS011;59503;53.486;10.196;2023-07-31T08:19:01;1.50;;;0.87;;
71665;SDS011;59503;53.486;10.196;2023-07-31T08:21:26;1.60;;;1.10;;
71665;SDS011;59503;53.486;10.196;2023-07-31T08:23:52;2.03;;;1.20;;
71665;SDS011;59503;53.486;10.196;2023-07-31T08:26:18;1.77;;;1.00;;
71665;SDS011;59503;53.486;10.196;2023-07-31T08:28:44;1.75;;;1.17;;
71665;SDS011;59503;53.486;10.196;2023-07-31T08:31:09;1.77;;;0.93;;
71665;SDS011;59503;53.486;10.196;2023-07-31T08:33:35;1.30;;;1.00;;
71665;SDS011;59503;53.486;10.196;2023-07-31T08:36:01;1.73;;;0.90;;
71665;SDS011;59503;53.486;10.196;2023-07-31T08:38:27;1.40;;;0.90;;
71665;SDS011;59503;53.486;10.196;2023-07-31T08:40:54;2.95;;;1.00;;
71665;SDS011;59503;53.486;10.196;2023-07-31T08:43:21;3.10;;;1.13;;
71665;SDS011;59503;53.486;10.196;2023-07-31T08:45:50;1.15;;;0.70;;
71665;SDS011;59503;53.486;10.196;2023-07-31T08:48:16;5.13;;;1.10;;
71665;SDS011;59503;53.486;10.196;2023-07-31T08:50:42;2.42;;;0.95;;
71665;SDS011;59503;53.486;10.196;2023-07-31T08:53:08;1.90;;;0.75;;
71665;SDS011;59503;53.486;10.196;2023-07-31T08:55:34;1.37;;;1.00;;
71665;SDS011;59503;53.486;10.196;2023-07-31T08:58:00;2.17;;;0.60;;
71665;SDS011;59503;53.486;10.196;2023-07-31T09:00:28;1.83;;;0.50;;
71665;SDS011;59503;53.486;10.196;2023-07-31T09:02:57;0.68;;;0.50;;
71665;SDS011;59503;53.486;10.196;2023-07-31T09:05:30;0.70;;;0.57;;
71665;SDS011;59503;53.486;10.196;2023-07-31T09:07:56;1.20;;;0.63;;
71665;SDS011;59503;53.486;10.196;2023-07-31T09:10:23;1.20;;;0.57;;
71665;SDS011;59503;53.486;10.196;2023-07-31T09:12:49;0.70;;;0.40;;
71665;SDS011;59503;53.486;10.196;2023-07-31T09:15:16;0.98;;;0.50;;
71665;SDS011;59503;53.486;10.196;2023-07-31T09:17:42;0.80;;;0.40;;
71665;SDS011;59503;53.486;10.196;2023-07-31T09:20:17;0.40;;;0.30;;
71665;SDS011;59503;53.486;10.196;2023-07-31T09:22:45;1.00;;;0.30;;
71665;SDS011;59503;53.486;10.196;2023-07-31T09:25:15;0.95;;;0.47;;
71665;SDS011;59503;53.486;10.196;2023-07-31T09:30:19;0.50;;;0.40;;
71665;SDS011;59503;53.486;10.196;2023-07-31T09:32:45;1.20;;;0.40;;
71665;SDS011;59503;53.486;10.196;2023-07-31T09:37:50;0.45;;;0.40;;
71665;SDS011;59503;53.486;10.196;2023-07-31T09:40:25;0.82;;;0.40;;
71665;SDS011;59503;53.486;10.196;2023-07-31T09:42:51;1.48;;;0.30;;
71665;SDS011;59503;53.486;10.196;2023-07-31T09:45:16;1.17;;;0.30;;
71665;SDS011;59503;53.486;10.196;2023-07-31T09:47:47;0.30;;;0.30;;
71665;SDS011;59503;53.486;10.196;2023-07-31T09:50:14;0.45;;;0.30;;
71665;SDS011;59503;53.486;10.196;2023-07-31T09:52:41;3.20;;;0.40;;
71665;SDS011;59503;53.486;10.196;2023-07-31T09:55:07;0.75;;;0.40;;
71665;SDS011;59503;53.486;10.196;2023-07-31T09:57:33;0.30;;;0.30;;
71665;SDS011;59503;53.486;10.196;2023-07-31T09:59:59;0.60;;;0.30;;
71665;SDS011;59503;53.486;10.196;2023-07-31T10:02:25;1.43;;;0.30;;
71665;SDS011;59503;53.486;10.196;2023-07-31T10:04:53;2.70;;;0.40;;
71665;SDS011;59503;53.486;10.196;2023-07-31T10:07:23;0.85;;;0.20;;
71665;SDS011;59503;53.486;10.196;2023-07-31T10:09:51;0.60;;;0.30;;
71665;SDS011;59503;53.486;10.196;2023-07-31T10:12:19;1.27;;;0.20;;
71665;SDS011;59503;53.486;10.196;2023-07-31T10:14:50;1.90;;;0.30;;
71665;SDS011;59503;53.486;10.196;2023-07-31T10:17:19;0.77;;;0.38;;
71665;SDS011;59503;53.486;10.196;2023-07-31T10:19:46;2.80;;;0.70;;
71665;SDS011;59503;53.486;10.196;2023-07-31T10:22:13;5.45;;;1.67;;
71665;SDS011;59503;53.486;10.196;2023-07-31T10:24:39;4.88;;;1.75;;
71665;SDS011;59503;53.486;10.196;2023-07-31T10:27:07;4.17;;;2.03;;
71665;SDS011;59503;53.486;10.196;2023-07-31T10:29:35;5.03;;;2.45;;
71665;SDS011;59503;53.486;10.196;2023-07-31T10:32:02;8.45;;;3.05;;
71665;SDS011;59503;53.486;10.196;2023-07-31T10:34:32;7.40;;;3.30;;
71665;SDS011;59503;53.486;10.196;2023-07-31T10:39:57;14.03;;;5.10;;
71665;SDS011;59503;53.486;10.196;2023-07-31T10:42:32;18.35;;;6.90;;
71665;SDS011;59503;53.486;10.196;2023-07-31T10:45:12;17.52;;;6.63;;
71665;SDS011;59503;53.486;10.196;2023-07-31T10:47:38;18.65;;;7.38;;
71665;SDS011;59503;53.486;10.196;2023-07-31T10:50:11;21.93;;;7.40;;
71665;SDS011;59503;53.486;10.196;2023-07-31T10:52:55;17.27;;;7.07;;
71665;SDS011;59503;53.486;10.196;2023-07-31T10:55:41;27.13;;;8.57;;
71665;SDS011;59503;53.486;10.196;2023-07-31T10:58:12;27.30;;;8.25;;
71665;SDS011;59503;53.486;10.196;2023-07-31T11:00:39;26.90;;;8.45;;
71665;SDS011;59503;53.486;10.196;2023-07-31T11:03:10;20.13;;;7.37;;
71665;SDS011;59503;53.486;10.196;2023-07-31T11:08:21;20.23;;;6.45;;
71665;SDS011;59503;53.486;10.196;2023-07-31T11:10:51;15.77;;;6.75;;
71665;SDS011;59503;53.486;10.196;2023-07-31T11:13:31;17.15;;;6.72;;
71665;SDS011;59503;53.486;10.196;2023-07-31T11:15:58;16.23;;;5.70;;
71665;SDS011;59503;53.486;10.196;2023-07-31T11:18:24;16.85;;;5.72;;
71665;SDS011;59503;53.486;10.196;2023-07-31T11:20:52;14.48;;;5.38;;
71665;SDS011;59503;53.486;10.196;2023-07-31T11:23:18;13.85;;;5.57;;
71665;SDS011;59503;53.486;10.196;2023-07-31T11:25:45;9.13;;;4.70;;
71665;SDS011;59503;53.486;10.196;2023-07-31T11:28:11;12.23;;;4.87;;
71665;SDS011;59503;53.486;10.196;2023-07-31T11:30:39;13.60;;;4.35;;
71665;SDS011;59503;53.486;10.196;2023-07-31T11:33:06;10.57;;;4.00;;
71665;SDS011;59503;53.486;10.196;2023-07-31T11:35:34;8.25;;;4.35;;
71665;SDS011;59503;53.486;10.196;2023-07-31T11:38:01;10.73;;;3.90;;
71665;SDS011;59503;53.486;10.196;2023-07-31T11:40:28;7.95;;;3.45;;
71665;SDS011;59503;53.486;10.196;2023-07-31T11:42:57;10.05;;;3.50;;
71665;SDS011;59503;53.486;10.196;2023-07-31T11:45:27;5.97;;;2.88;;
71665;SDS011;59503;53.486;10.196;2023-07-31T11:47:56;9.00;;;3.90;;
71665;SDS011;59503;53.486;10.196;2023-07-31T11:50:22;8.57;;;3.17;;
71665;SDS011;59503;53.486;10.196;2023-07-31T11:52:51;9.95;;;3.95;;
71665;SDS011;59503;53.486;10.196;2023-07-31T11:55:20;6.43;;;3.33;;
71665;SDS011;59503;53.486;10.196;2023-07-31T11:57:46;10.82;;;3.45;;
71665;SDS011;59503;53.486;10.196;2023-07-31T12:00:12;7.37;;;3.40;;
71665;SDS011;59503;53.486;10.196;2023-07-31T12:02:40;6.60;;;3.25;;
71665;SDS011;59503;53.486;10.196;2023-07-31T12:05:12;8.63;;;2.67;;
71665;SDS011;59503;53.486;10.196;2023-07-31T12:10:10;12.95;;;3.10;;
71665;SDS011;59503;53.486;10.196;2023-07-31T12:12:36;6.87;;;2.87;;
71665;SDS011;59503;53.486;10.196;2023-07-31T12:15:02;8.55;;;2.83;;
71665;SDS011;59503;53.486;10.196;2023-07-31T12:17:27;5.37;;;1.80;;
71665;SDS011;59503;53.486;10.196;2023-07-31T12:19:53;4.17;;;1.87;;
71665;SDS011;59503;53.486;10.196;2023-07-31T12:22:19;4.35;;;2.10;;
71665;SDS011;59503;53.486;10.196;2023-07-31T12:24:46;4.53;;;1.87;;
71665;SDS011;59503;53.486;10.196;2023-07-31T12:27:12;4.55;;;2.30;;
71665;SDS011;59503;53.486;10.196;2023-07-31T12:29:38;4.63;;;1.97;;
71665;SDS011;59503;53.486;10.196;2023-07-31T12:32:24;4.85;;;1.95;;
71665;SDS011;59503;53.486;10.196;2023-07-31T12:34:54;2.88;;;1.67;;
71665;SDS011;59503;53.486;10.196;2023-07-31T12:37:22;4.50;;;1.70;;
71665;SDS011;59503;53.486;10.196;2023-07-31T12:39:48;3.00;;;1.38;;
71665;SDS011;59503;53.486;10.196;2023-07-31T12:42:13;2.67;;;1.20;;
71665;SDS011;59503;53.486;10.196;2023-07-31T12:44:38;4.13;;;1.77;;
71665;SDS011;59503;53.486;10.196;2023-07-31T12:47:04;3.22;;;1.63;;
71665;SDS011;59503;53.486;10.196;2023-07-31T12:49:30;2.83;;;1.80;;
71665;SDS011;59503;53.486;10.196;2023-07-31T12:51:55;4.33;;;1.40;;
71665;SDS011;59503;53.486;10.196;2023-07-31T12:54:20;3.13;;;1.37;;
71665;SDS011;59503;53.486;10.196;2023-07-31T12:56:46;2.80;;;1.40;;
71665;SDS011;59503;53.486;10.196;2023-07-31T12:59:11;1.93;;;1.40;;
71665;SDS011;59503;53.486;10.196;2023-07-31T13:01:37;4.50;;;1.30;;
71665;SDS011;59503;53.486;10.196;2023-07-31T13:04:02;2.33;;;1.30;;
71665;SDS011;59503;53.486;10.196;2023-07-31T13:06:28;1.87;;;1.07;;
71665;SDS011;59503;53.486;10.196;2023-07-31T13:08:53;1.97;;;1.37;;
71665;SDS011;59503;53.486;10.196;2023-07-31T13:11:19;2.08;;;1.17;;
71665;SDS011;59503;53.486;10.196;2023-07-31T13:13:44;1.57;;;1.07;;
71665;SDS011;59503;53.486;10.196;2023-07-31T13:16:09;2.30;;;1.33;;
71665;SDS011;59503;53.486;10.196;2023-07-31T13:18:35;3.47;;;1.30;;
71665;SDS011;59503;53.486;10.196;2023-07-31T13:21:00;1.70;;;0.90;;
71665;SDS011;59503;53.486;10.196;2023-07-31T13:23:26;2.00;;;1.20;;
71665;SDS011;59503;53.486;10.196;2023-07-31T13:25:51;2.97;;;1.27;;
71665;SDS011;59503;53.486;10.196;2023-07-31T13:28:17;2.73;;;1.10;;
71665;SDS011;59503;53.486;10.196;2023-07-31T13:30:42;1.87;;;1.00;;
71665;SDS011;59503;53.486;10.196;2023-07-31T13:33:07;2.20;;;0.90;;
71665;SDS011;59503;53.486;10.196;2023-07-31T13:35:33;1.70;;;1.20;;
71665;SDS011;59503;53.486;10.196;2023-07-31T13:37:58;2.40;;;1.03;;
71665;SDS011;59503;53.486;10.196;2023-07-31T13:40:24;1.60;;;1.10;;
71665;SDS011;59503;53.486;10.196;2023-07-31T13:42:49;1.55;;;1.20;;
71665;SDS011;59503;53.486;10.196;2023-07-31T13:45:15;3.63;;;1.20;;
71665;SDS011;59503;53.486;10.196;2023-07-31T13:47:40;1.80;;;1.07;;
71665;SDS011;59503;53.486;10.196;2023-07-31T13:50:06;2.43;;;1.00;;
71665;SDS011;59503;53.486;10.196;2023-07-31T13:52:31;1.60;;;0.90;;
71665;SDS011;59503;53.486;10.196;2023-07-31T13:54:57;1.20;;;1.00;;
71665;SDS011;59503;53.486;10.196;2023-07-31T13:57:22;1.87;;;1.10;;
71665;SDS011;59503;53.486;10.196;2023-07-31T13:59:48;1.50;;;1.10;;
71665;SDS011;59503;53.486;10.196;2023-07-31T14:02:14;2.75;;;1.00;;
71665;SDS011;59503;53.486;10.196;2023-07-31T14:04:40;4.97;;;1.10;;
71665;SDS011;59503;53.486;10.196;2023-07-31T14:07:05;1.83;;;0.90;;
71665;SDS011;59503;53.486;10.196;2023-07-31T14:09:31;1.35;;;0.90;;
71665;SDS011;59503;53.486;10.196;2023-07-31T14:11:56;1.20;;;0.80;;
71665;SDS011;59503;53.486;10.196;2023-07-31T14:14:22;1.20;;;1.00;;
71665;SDS011;59503;53.486;10.196;2023-07-31T14:16:47;2.87;;;0.80;;
71665;SDS011;59503;53.486;10.196;2023-07-31T14:19:13;1.30;;;0.85;;
71665;SDS011;59503;53.486;10.196;2023-07-31T14:21:38;2.37;;;1.00;;
71665;SDS011;59503;53.486;10.196;2023-07-31T14:24:04;1.10;;;0.80;;
71665;SDS011;59503;53.486;10.196;2023-07-31T14:26:29;1.10;;;0.80;;
71665;SDS011;59503;53.486;10.196;2023-07-31T14:28:55;1.03;;;0.60;;
71665;SDS011;59503;53.486;10.196;2023-07-31T14:31:20;0.80;;;0.70;;
71665;SDS011;59503;53.486;10.196;2023-07-31T14:33:46;6.53;;;1.10;;
71665;SDS011;59503;53.486;10.196;2023-07-31T14:36:11;6.43;;;0.80;;
71665;SDS011;59503;53.486;10.196;2023-07-31T14:38:36;7.03;;;1.30;;
71665;SDS011;59503;53.486;10.196;2023-07-31T14:41:02;4.47;;;0.90;;
71665;SDS011;59503;53.486;10.196;2023-07-31T14:43:27;2.07;;;1.00;;
71665;SDS011;59503;53.486;10.196;2023-07-31T14:55:56;2.50;;;1.50;;